createdAt,value
2018-02-04T00:00:54.596Z,66.20
2018-02-04T00:03:23.270Z,65.80
2018-02-04T00:05:51.475Z,65.80
2018-02-04T00:08:19.678Z,65.00
2018-02-04T00:10:48.776Z,64.00
2018-02-04T00:13:17.731Z,64.40
2018-02-04T00:15:45.924Z,64.30
2018-02-04T00:18:14.129Z,64.70
2018-02-04T00:20:42.373Z,64.80
2018-02-04T00:23:10.656Z,64.50
2018-02-04T00:25:39.639Z,65.00
2018-02-04T00:28:07.917Z,63.80
2018-02-04T00:30:36.106Z,64.80
2018-02-04T00:33:05.111Z,63.70
2018-02-04T00:35:33.297Z,63.60
2018-02-04T00:38:01.508Z,64.10
2018-02-04T00:40:29.705Z,64.20
2018-02-04T00:42:57.924Z,64.40
2018-02-04T00:45:26.132Z,64.10
2018-02-04T00:47:54.356Z,63.80
2018-02-04T00:50:22.538Z,64.20
2018-02-04T00:52:50.720Z,63.70
2018-02-04T00:55:19.480Z,63.10
2018-02-04T00:57:48.449Z,60.40
2018-02-04T01:00:16.658Z,60.40
2018-02-04T01:02:45.412Z,60.30
2018-02-04T01:05:13.653Z,60.30
2018-02-04T01:07:41.929Z,60.20
2018-02-04T01:10:10.613Z,60.20
2018-02-04T01:12:38.845Z,59.10
2018-02-04T01:15:07.061Z,58.40
2018-02-04T01:17:35.284Z,58.20
2018-02-04T01:20:04.254Z,59.20
2018-02-04T01:22:33.411Z,59.20
2018-02-04T01:25:01.625Z,60.00
2018-02-04T01:27:29.841Z,60.00
2018-02-04T01:29:58.077Z,60.00
2018-02-04T01:32:26.263Z,61.30
2018-02-04T01:34:55.211Z,60.10
2018-02-04T01:37:23.845Z,61.30
2018-02-04T01:39:52.789Z,59.30
2018-02-04T01:42:21.007Z,59.20
2018-02-04T01:44:49.978Z,57.40
2018-02-04T01:47:18.302Z,57.40
2018-02-04T01:49:46.505Z,58.10
2018-02-04T01:52:14.684Z,57.70
2018-02-04T01:54:42.896Z,58.10
2018-02-04T01:57:11.837Z,58.00
2018-02-04T01:59:40.068Z,58.00
2018-02-04T02:02:08.677Z,57.80
2018-02-04T02:04:36.883Z,57.10
2018-02-04T02:07:05.119Z,57.50
2018-02-04T02:09:33.327Z,58.50
2018-02-04T02:12:01.581Z,58.40
2018-02-04T02:14:29.800Z,59.70
2018-02-04T02:16:58.800Z,59.70
2018-02-04T02:19:28.012Z,59.60
2018-02-04T02:21:56.614Z,59.60
2018-02-04T02:24:24.831Z,59.60
2018-02-04T02:26:53.056Z,59.50
2018-02-04T02:29:21.264Z,59.50
2018-02-04T02:31:49.469Z,59.80
2018-02-04T02:34:17.673Z,60.80
2018-02-04T02:36:45.883Z,61.50
2018-02-04T02:39:14.490Z,62.10
2018-02-04T02:41:42.713Z,63.70
2018-02-04T02:44:10.892Z,63.10
2018-02-04T02:46:39.076Z,63.40
2018-02-04T02:49:07.442Z,63.10
2018-02-04T02:51:35.650Z,65.10
2018-02-04T02:54:03.842Z,64.20
2018-02-04T02:56:32.046Z,64.30
2018-02-04T02:59:00.314Z,65.60
2018-02-04T03:01:28.544Z,64.70
2018-02-04T03:03:56.753Z,64.40
2018-02-04T03:06:25.729Z,64.90
2018-02-04T03:08:54.437Z,64.90
2018-02-04T03:11:23.428Z,66.20
2018-02-04T03:13:52.381Z,66.70
2018-02-04T03:16:20.609Z,66.90
2018-02-04T03:18:48.813Z,66.90
2018-02-04T03:21:17.041Z,67.00
2018-02-04T03:23:46.021Z,66.80
2018-02-04T03:26:14.993Z,67.00
2018-02-04T03:28:43.275Z,67.00
2018-02-04T03:31:11.459Z,66.60
2018-02-04T03:33:40.434Z,66.40
2018-02-04T03:36:08.656Z,66.40
2018-02-04T03:38:36.860Z,66.60
2018-02-04T03:41:05.072Z,67.00
2018-02-04T03:43:34.093Z,67.30
2018-02-04T03:46:02.568Z,67.30
2018-02-04T03:48:30.744Z,67.70
2018-02-04T03:50:58.941Z,68.30
2018-02-04T03:53:27.144Z,68.60
2018-02-04T03:55:55.373Z,68.70
2018-02-04T03:58:23.620Z,69.20
2018-02-04T04:00:52.578Z,70.10
2018-02-04T04:03:20.934Z,70.10
2018-02-04T04:05:49.252Z,70.10
2018-02-04T04:08:17.455Z,70.10
2018-02-04T04:10:45.697Z,71.10
2018-02-04T04:13:13.903Z,70.80
2018-02-04T04:15:42.085Z,71.20
2018-02-04T04:18:10.340Z,71.20
2018-02-04T04:20:39.312Z,70.70
2018-02-04T04:23:07.545Z,70.70
2018-02-04T04:25:35.748Z,71.20
2018-02-04T04:28:04.056Z,70.20
2018-02-04T04:30:33.086Z,71.00
2018-02-04T04:33:01.287Z,71.00
2018-02-04T04:35:29.496Z,70.90
2018-02-04T04:37:58.440Z,70.70
2018-02-04T04:40:26.745Z,70.70
2018-02-04T04:42:54.924Z,70.90
2018-02-04T04:45:23.916Z,70.20
2018-02-04T04:47:52.913Z,70.10
2018-02-04T04:50:21.920Z,70.10
2018-02-04T04:52:50.904Z,70.10
2018-02-04T04:55:19.858Z,70.10
2018-02-04T04:57:48.069Z,70.10
2018-02-04T05:00:17.040Z,70.10
2018-02-04T05:02:45.269Z,70.10
2018-02-04T05:05:13.485Z,71.10
2018-02-04T05:07:41.749Z,69.80
2018-02-04T05:10:09.953Z,70.10
2018-02-04T05:12:38.954Z,70.00
2018-02-04T05:15:07.204Z,70.00
2018-02-04T05:17:35.409Z,70.00
2018-02-04T05:20:03.617Z,70.00
2018-02-04T05:22:31.821Z,70.00
2018-02-04T05:25:00.019Z,69.90
2018-02-04T05:27:28.304Z,69.90
2018-02-04T05:29:57.065Z,70.40
2018-02-04T05:32:25.282Z,70.50
2018-02-04T05:34:53.511Z,70.80
2018-02-04T05:37:21.727Z,71.00
2018-02-04T05:39:49.980Z,71.60
2018-02-04T05:42:18.980Z,72.30
2018-02-04T05:44:47.202Z,72.30
2018-02-04T05:47:15.412Z,72.60
2018-02-04T05:49:47.237Z,72.80
2018-02-04T05:52:15.560Z,72.80
2018-02-04T05:54:43.776Z,72.80
2018-02-04T05:57:11.960Z,73.00
2018-02-04T05:59:40.220Z,73.50
2018-02-04T06:02:08.449Z,73.40
2018-02-04T06:04:37.403Z,73.10
2018-02-04T06:07:05.620Z,73.00
2018-02-04T06:09:33.887Z,73.10
2018-02-04T06:12:03.257Z,73.10
2018-02-04T06:14:32.082Z,73.00
2018-02-04T06:17:01.093Z,73.00
2018-02-04T06:19:29.286Z,73.00
2018-02-04T06:21:57.529Z,74.00
2018-02-04T06:24:25.712Z,73.00
2018-02-04T06:26:53.909Z,73.10
2018-02-04T06:29:22.137Z,73.30
2018-02-04T06:31:51.109Z,73.80
2018-02-04T06:34:19.349Z,73.80
2018-02-04T06:36:47.552Z,74.10
2018-02-04T06:39:16.879Z,74.00
2018-02-04T06:41:45.858Z,73.10
2018-02-04T06:44:15.108Z,72.40
2018-02-04T06:46:43.343Z,72.30
2018-02-04T06:49:12.312Z,72.60
2018-02-04T06:51:41.077Z,72.50
2018-02-04T06:54:09.318Z,72.20
2018-02-04T06:56:37.541Z,72.60
2018-02-04T06:59:05.756Z,73.00
2018-02-04T07:01:34.227Z,73.20
2018-02-04T07:04:02.498Z,73.20
2018-02-04T07:06:31.479Z,72.90
2018-02-04T07:09:00.468Z,72.90
2018-02-04T07:11:28.729Z,72.90
2018-02-04T07:13:56.956Z,72.90
2018-02-04T07:16:25.241Z,72.70
2018-02-04T07:18:53.476Z,72.60
2018-02-04T07:21:23.183Z,72.20
2018-02-04T07:23:52.148Z,71.90
2018-02-04T07:26:20.788Z,71.80
2018-02-04T07:28:49.130Z,71.70
2018-02-04T07:31:18.336Z,71.40
2018-02-04T07:33:47.305Z,71.00
2018-02-04T07:36:15.556Z,71.00
2018-02-04T07:38:43.861Z,70.70
2018-02-04T07:41:12.658Z,70.10
2018-02-04T07:43:41.641Z,70.00
2018-02-04T07:46:09.880Z,70.10
2018-02-04T07:48:38.068Z,69.50
2018-02-04T07:51:06.266Z,68.70
2018-02-04T07:53:35.264Z,68.10
2018-02-04T07:56:04.239Z,67.50
2018-02-04T07:58:32.733Z,67.50
2018-02-04T08:01:00.982Z,66.70
2018-02-04T08:03:29.186Z,66.80
2018-02-04T08:05:58.145Z,66.40
2018-02-04T08:08:26.360Z,66.30
2018-02-04T08:10:56.032Z,65.80
2018-02-04T08:13:24.240Z,65.80
2018-02-04T08:15:53.237Z,65.00
2018-02-04T08:18:22.209Z,64.20
2018-02-04T08:20:51.220Z,64.80
2018-02-04T08:23:20.188Z,63.30
2018-02-04T08:25:48.466Z,63.30
2018-02-04T08:28:17.280Z,63.80
2018-02-04T08:30:45.548Z,63.40
2018-02-04T08:33:14.497Z,62.40
2018-02-04T08:35:42.721Z,62.50
2018-02-04T08:38:11.516Z,62.30
2018-02-04T08:40:39.700Z,61.90
2018-02-04T08:43:07.924Z,61.80
2018-02-04T08:45:36.117Z,61.40
2018-02-04T08:48:05.090Z,61.20
2018-02-04T08:50:33.316Z,61.20
2018-02-04T08:53:01.541Z,59.20
2018-02-04T08:55:29.784Z,59.70
2018-02-04T08:57:58.000Z,59.70
2018-02-04T09:00:26.977Z,60.00
2018-02-04T09:02:55.284Z,60.00
2018-02-04T09:05:23.590Z,59.70
2018-02-04T09:07:51.789Z,58.60
2018-02-04T09:10:20.519Z,58.30
2018-02-04T09:12:48.727Z,57.10
2018-02-04T09:15:17.145Z,57.00
2018-02-04T09:17:45.365Z,56.10
2018-02-04T09:20:13.617Z,56.30
2018-02-04T09:22:41.844Z,55.10
2018-02-04T09:25:10.052Z,55.30
2018-02-04T09:27:39.020Z,53.90
2018-02-04T09:30:07.273Z,53.90
2018-02-04T09:32:36.395Z,53.10
2018-02-04T09:35:04.605Z,51.30
2018-02-04T09:37:32.849Z,50.50
2018-02-04T09:40:01.029Z,50.50
2018-02-04T09:42:29.240Z,50.20
2018-02-04T09:44:57.492Z,48.90
2018-02-04T09:47:26.459Z,47.90
2018-02-04T09:49:54.676Z,47.90
2018-02-04T09:52:22.853Z,46.80
2018-02-04T09:54:51.104Z,46.50
2018-02-04T09:57:20.054Z,47.50
2018-02-04T09:59:48.304Z,47.60
2018-02-04T10:02:16.539Z,46.60
2018-02-04T10:04:45.495Z,44.00
2018-02-04T10:07:13.706Z,44.00
2018-02-04T10:09:42.672Z,42.60
2018-02-04T10:12:10.904Z,42.50
2018-02-04T10:14:39.089Z,42.80
2018-02-04T10:17:07.996Z,42.70
2018-02-04T10:19:36.288Z,40.60
2018-02-04T10:22:04.504Z,40.00
2018-02-04T10:24:32.767Z,39.50
2018-02-04T10:27:01.093Z,40.00
2018-02-04T10:29:30.112Z,39.50
2018-02-04T10:31:58.323Z,39.50
2018-02-04T10:34:26.514Z,39.40
2018-02-04T10:36:54.734Z,39.40
2018-02-04T10:39:22.923Z,39.20
2018-02-04T10:41:51.905Z,38.10
2018-02-04T10:44:20.909Z,38.10
2018-02-04T10:46:50.085Z,38.50
2018-02-04T10:49:19.064Z,37.60
2018-02-04T10:51:52.792Z,38.40
2018-02-04T10:54:21.797Z,37.10
2018-02-04T10:56:49.992Z,37.00
2018-02-04T10:59:18.212Z,36.80
2018-02-04T11:01:46.683Z,36.50
2018-02-04T11:04:15.584Z,35.40
2018-02-04T11:06:43.800Z,35.70
2018-02-04T11:09:12.068Z,35.10
2018-02-04T11:11:40.316Z,34.40
2018-02-04T11:14:08.518Z,35.20
2018-02-04T11:16:36.733Z,35.10
2018-02-04T11:19:04.956Z,33.80
2018-02-04T11:21:33.938Z,31.90
2018-02-04T11:24:02.885Z,30.70
2018-02-04T11:26:31.089Z,30.60
2018-02-04T11:28:59.472Z,29.10
2018-02-04T11:31:28.017Z,30.20
2018-02-04T11:33:56.228Z,30.60
2018-02-04T11:36:24.436Z,28.50
2018-02-04T11:38:52.672Z,29.00
2018-02-04T11:41:20.888Z,28.30
2018-02-04T11:43:49.104Z,26.70
2018-02-04T11:46:17.336Z,26.20
2018-02-04T11:48:45.581Z,25.00
2018-02-04T11:51:14.560Z,24.00
2018-02-04T11:53:42.772Z,24.00
2018-02-04T11:56:10.973Z,25.10
2018-02-04T11:58:39.181Z,24.20
2018-02-04T12:01:07.955Z,23.10
2018-02-04T12:03:36.169Z,22.80
2018-02-04T12:06:04.423Z,21.10
2018-02-04T12:08:33.413Z,20.80
2018-02-04T12:11:01.720Z,20.70
2018-02-04T12:13:29.946Z,20.40
2018-02-04T12:15:58.134Z,20.20
2018-02-04T12:18:26.436Z,19.40
2018-02-04T12:20:54.630Z,19.30
2018-02-04T12:23:22.840Z,17.90
2018-02-04T12:25:51.132Z,17.30
2018-02-04T12:28:19.365Z,18.20
2018-02-04T12:30:47.584Z,17.60
2018-02-04T12:33:15.812Z,17.60
2018-02-04T12:35:44.028Z,17.40
2018-02-04T12:38:12.328Z,19.20
2018-02-04T12:40:41.348Z,18.40
2018-02-04T12:43:10.041Z,18.40
2018-02-04T12:45:38.236Z,16.90
2018-02-04T12:48:06.449Z,16.60
2018-02-04T12:50:35.453Z,16.60
2018-02-04T12:53:03.664Z,16.60
2018-02-04T12:55:32.047Z,16.30
2018-02-04T12:58:00.244Z,15.70
2018-02-04T13:00:28.464Z,14.40
2018-02-04T13:02:56.702Z,13.90
2018-02-04T13:05:24.914Z,13.60
2018-02-04T13:07:53.301Z,12.80
2018-02-04T13:10:21.492Z,12.90
2018-02-04T13:12:49.681Z,12.10
2018-02-04T13:15:17.892Z,12.00
2018-02-04T13:17:46.858Z,9.30
2018-02-04T13:20:15.144Z,9.30
2018-02-04T13:22:44.119Z,9.50
2018-02-04T13:25:12.345Z,9.50
2018-02-04T13:27:40.600Z,10.30
2018-02-04T13:30:08.812Z,11.10
2018-02-04T13:32:37.053Z,11.70
2018-02-04T13:35:05.311Z,13.10
2018-02-04T13:37:34.393Z,15.70
2018-02-04T13:40:02.592Z,15.70
2018-02-04T13:42:30.838Z,16.90
2018-02-04T13:44:59.029Z,19.30
2018-02-04T13:47:28.011Z,21.50
2018-02-04T13:49:57.898Z,23.40
2018-02-04T13:52:26.089Z,23.30
2018-02-04T13:54:54.285Z,24.40
2018-02-04T13:57:23.484Z,27.70
2018-02-04T13:59:52.432Z,28.60
2018-02-04T14:02:20.629Z,28.50
2018-02-04T14:04:48.852Z,29.50
2018-02-04T14:07:17.060Z,29.50
2018-02-04T14:09:45.293Z,29.70
2018-02-04T14:12:13.548Z,31.70
2018-02-04T14:14:41.759Z,32.20
2018-02-04T14:17:10.776Z,33.20
2018-02-04T14:19:39.392Z,34.20
2018-02-04T14:22:08.797Z,35.30
2018-02-04T14:24:37.797Z,36.20
2018-02-04T14:27:06.044Z,36.20
2018-02-04T14:29:35.016Z,38.60
2018-02-04T14:32:03.226Z,38.50
2018-02-04T14:34:32.236Z,39.50
2018-02-04T14:37:00.451Z,39.50
2018-02-04T14:39:28.666Z,40.40
2018-02-04T14:41:56.909Z,40.90
2018-02-04T14:44:25.136Z,41.90
2018-02-04T14:46:53.370Z,42.50
2018-02-04T14:49:21.648Z,43.60
2018-02-04T14:51:50.695Z,44.40
2018-02-04T14:54:19.429Z,45.60
2018-02-04T14:56:48.420Z,48.50
2018-02-04T14:59:16.637Z,48.30
2018-02-04T15:01:45.424Z,50.10
2018-02-04T15:04:13.632Z,50.00
2018-02-04T15:06:41.964Z,51.30
2018-02-04T15:09:10.181Z,52.30
2018-02-04T15:11:38.515Z,53.10
2018-02-04T15:14:06.702Z,54.50
2018-02-04T15:16:34.886Z,55.80
2018-02-04T15:19:03.106Z,57.40
2018-02-04T15:21:31.304Z,56.80
2018-02-04T15:23:59.614Z,57.50
2018-02-04T15:26:27.873Z,57.90
2018-02-04T15:28:56.041Z,58.70
2018-02-04T15:31:24.251Z,60.00
2018-02-04T15:33:52.476Z,61.90
2018-02-04T15:36:20.706Z,61.80
2018-02-04T15:38:48.893Z,63.30
2018-02-04T15:41:17.179Z,63.80
2018-02-04T15:43:46.152Z,63.60
2018-02-04T15:46:14.361Z,63.70
2018-02-04T15:48:42.568Z,63.80
2018-02-04T15:51:11.004Z,63.40
2018-02-04T15:53:40.000Z,63.10
2018-02-04T15:56:08.976Z,63.30
2018-02-04T15:58:37.984Z,63.10
2018-02-04T16:01:06.190Z,63.00
2018-02-04T16:03:34.372Z,63.50
2018-02-04T16:06:02.686Z,63.20
2018-02-04T16:08:30.892Z,64.00
2018-02-04T16:10:59.116Z,64.40
2018-02-04T16:13:27.844Z,64.60
2018-02-04T16:15:56.205Z,64.90
2018-02-04T16:18:25.165Z,66.50
2018-02-04T16:20:53.358Z,66.40
2018-02-04T16:23:21.716Z,66.40
2018-02-04T16:25:49.900Z,66.50
2018-02-04T16:28:18.080Z,66.50
2018-02-04T16:30:46.292Z,66.50
2018-02-04T16:33:14.725Z,67.10
2018-02-04T16:35:42.955Z,67.00
2018-02-04T16:38:11.141Z,67.10
2018-02-04T16:40:39.382Z,67.30
2018-02-04T16:43:07.622Z,67.10
2018-02-04T16:45:35.856Z,67.00
2018-02-04T16:48:04.049Z,66.90
2018-02-04T16:50:32.232Z,66.80
2018-02-04T16:53:00.455Z,66.60
2018-02-04T16:55:28.724Z,66.80
2018-02-04T16:57:58.301Z,67.20
2018-02-04T17:00:26.664Z,67.20
2018-02-04T17:02:54.880Z,67.10
2018-02-04T17:05:23.117Z,67.40
2018-02-04T17:07:51.341Z,67.00
2018-02-04T17:10:19.825Z,67.40
2018-02-04T17:12:48.020Z,67.30
2018-02-04T17:15:16.201Z,68.80
2018-02-04T17:17:44.405Z,67.80
2018-02-04T17:20:12.868Z,67.80
2018-02-04T17:22:41.126Z,67.90
2018-02-04T17:25:09.330Z,68.30
2018-02-04T17:27:37.542Z,68.50
2018-02-04T17:30:06.212Z,68.50
2018-02-04T17:32:35.212Z,68.40
2018-02-04T17:35:03.401Z,68.50
2018-02-04T17:37:32.213Z,69.20
2018-02-04T17:40:00.428Z,69.80
2018-02-04T17:42:28.800Z,70.20
2018-02-04T17:44:57.088Z,70.70
2018-02-04T17:47:26.064Z,70.90
2018-02-04T17:49:54.298Z,70.90
2018-02-04T17:52:22.517Z,71.40
2018-02-04T17:54:51.513Z,71.40
2018-02-04T17:57:19.724Z,71.40
2018-02-04T17:59:48.816Z,71.30
2018-02-04T18:02:17.760Z,71.50
2018-02-04T18:04:46.052Z,71.80
2018-02-04T18:07:15.035Z,72.30
2018-02-04T18:09:44.036Z,72.40
2018-02-04T18:12:13.051Z,72.00
2018-02-04T18:14:41.301Z,72.00
2018-02-04T18:17:09.597Z,71.90
2018-02-04T18:19:37.804Z,71.80
2018-02-04T18:22:06.240Z,72.00
2018-02-04T18:24:35.236Z,72.20
2018-02-04T18:27:04.231Z,72.60
2018-02-04T18:29:33.307Z,72.30
2018-02-04T18:32:02.289Z,73.80
2018-02-04T18:34:30.516Z,72.20
2018-02-04T18:36:58.831Z,72.20
2018-02-04T18:39:27.025Z,72.30
2018-02-04T18:41:56.752Z,71.80
2018-02-04T18:44:25.824Z,72.90
2018-02-04T18:46:54.023Z,72.90
2018-02-04T18:49:22.233Z,74.00
2018-02-04T18:51:50.624Z,73.60
2018-02-04T18:54:18.813Z,73.90
2018-02-04T18:56:47.125Z,73.80
2018-02-04T18:59:15.360Z,73.80
2018-02-04T19:01:43.545Z,74.00
2018-02-04T19:04:11.733Z,74.70
2018-02-04T19:06:40.918Z,75.50
2018-02-04T19:09:09.100Z,75.50
2018-02-04T19:11:38.058Z,76.00
2018-02-04T19:14:06.264Z,75.90
2018-02-04T19:16:35.236Z,76.40
2018-02-04T19:19:03.541Z,76.30
2018-02-04T19:21:31.728Z,76.30
2018-02-04T19:24:00.171Z,76.10
2018-02-04T19:26:28.381Z,75.90
2018-02-04T19:28:56.593Z,76.60
2018-02-04T19:31:25.181Z,75.40
2018-02-04T19:33:53.396Z,76.00
2018-02-04T19:36:22.401Z,74.30
2018-02-04T19:38:50.590Z,74.30
2018-02-04T19:41:18.842Z,74.40
2018-02-04T19:43:47.094Z,74.30
2018-02-04T19:46:15.283Z,73.90
2018-02-04T19:48:44.262Z,73.30
2018-02-04T19:51:13.286Z,73.00
2018-02-04T19:53:41.478Z,73.00
2018-02-04T19:56:10.229Z,73.00
2018-02-04T19:58:38.935Z,73.10
2018-02-04T20:01:07.736Z,73.20
2018-02-04T20:03:35.973Z,73.00
2018-02-04T20:06:05.005Z,72.90
2018-02-04T20:08:33.216Z,72.90
2018-02-04T20:11:01.458Z,72.80
2018-02-04T20:13:29.664Z,72.80
2018-02-04T20:15:57.879Z,74.20
2018-02-04T20:18:26.124Z,73.10
2018-02-04T20:20:55.098Z,73.40
2018-02-04T20:23:23.289Z,73.40
2018-02-04T20:25:52.325Z,73.10
2018-02-04T20:28:20.529Z,73.10
2018-02-04T20:30:48.837Z,72.40
2018-02-04T20:33:23.482Z,72.60
2018-02-04T20:35:51.692Z,72.60
2018-02-04T20:38:19.888Z,72.80
2018-02-04T20:40:48.192Z,72.50
2018-02-04T20:46:26.758Z,72.50
2018-02-04T20:48:54.973Z,72.90
2018-02-04T20:51:23.165Z,72.60
2018-02-04T20:53:52.164Z,73.30
2018-02-04T20:56:21.166Z,73.50
2018-02-04T20:58:49.354Z,73.50
2018-02-04T21:01:17.565Z,73.20
2018-02-04T21:03:45.758Z,73.10
2018-02-04T21:06:13.986Z,72.90
2018-02-04T21:08:42.218Z,72.70
2018-02-04T21:11:11.218Z,73.50
2018-02-04T21:13:40.221Z,73.80
2018-02-04T21:16:08.488Z,73.70
2018-02-04T21:18:37.625Z,73.80
2018-02-04T21:21:05.848Z,73.80
2018-02-04T21:23:34.816Z,74.50
2018-02-04T21:26:03.045Z,74.50
2018-02-04T21:28:31.656Z,74.50
2018-02-04T21:30:59.964Z,74.80
2018-02-04T21:33:28.228Z,75.10
2018-02-04T21:35:56.448Z,75.70
2018-02-04T21:38:24.710Z,76.10
2018-02-04T21:40:53.170Z,76.30
2018-02-04T21:43:21.356Z,76.40
2018-02-04T21:45:50.328Z,76.20
2018-02-04T21:48:18.562Z,76.30
2018-02-04T21:50:46.776Z,76.50
2018-02-04T21:53:15.010Z,76.70
2018-02-04T21:55:43.220Z,77.00
2018-02-04T21:58:11.502Z,77.20
2018-02-04T22:00:39.708Z,77.40
2018-02-04T22:03:07.968Z,77.70
2018-02-04T22:05:36.945Z,78.40
2018-02-04T22:08:05.156Z,78.50
2018-02-04T22:10:33.370Z,78.60
2018-02-04T22:13:01.774Z,78.60
2018-02-04T22:15:30.001Z,78.70
2018-02-04T22:17:58.200Z,78.90
2018-02-04T22:20:26.416Z,79.30
2018-02-04T22:22:55.594Z,79.80
2018-02-04T22:25:24.577Z,79.90
2018-02-04T22:27:52.836Z,79.90
2018-02-04T22:30:21.047Z,80.30
2018-02-04T22:32:50.002Z,80.70
2018-02-04T22:35:18.232Z,80.70
2018-02-04T22:37:46.444Z,80.60
2018-02-04T22:40:14.657Z,81.10
2018-02-04T22:42:43.656Z,81.00
2018-02-04T22:45:11.868Z,81.00
2018-02-04T22:47:40.080Z,80.80
2018-02-04T22:50:08.405Z,80.80
2018-02-04T22:52:36.585Z,80.60
2018-02-04T22:55:04.764Z,80.20
2018-02-04T22:57:33.009Z,79.70
2018-02-04T23:00:01.571Z,79.20
2018-02-04T23:02:29.796Z,78.90
2018-02-04T23:04:58.012Z,78.40
2018-02-04T23:07:26.993Z,77.40
2018-02-04T23:09:55.205Z,77.30
2018-02-04T23:12:23.393Z,76.90
2018-02-04T23:14:51.608Z,76.70
2018-02-04T23:17:19.896Z,76.30
2018-02-04T23:19:48.134Z,76.10
2018-02-04T23:22:16.325Z,75.90
2018-02-04T23:24:44.543Z,76.40
2018-02-04T23:27:12.794Z,75.30
2018-02-04T23:29:41.015Z,75.20
2018-02-04T23:32:09.265Z,74.40
2018-02-04T23:34:37.497Z,75.00
2018-02-04T23:37:05.685Z,74.90
2018-02-04T23:39:33.873Z,75.00
2018-02-04T23:42:02.900Z,74.50
2018-02-04T23:44:31.128Z,75.50
2018-02-04T23:47:01.062Z,73.70
2018-02-04T23:49:29.293Z,73.80
2018-02-04T23:51:57.704Z,73.40
2018-02-04T23:54:26.700Z,73.50
2018-02-04T23:56:55.665Z,73.30
2018-02-04T23:59:23.898Z,73.30
